sensor_id;sensor_type;location;lat;lon;timestamp;pressure;altitude;pressure_sealevel;temperature;humidity
9423;BME280;65863;49.506;10.400;2023-04-21T00:01:50;97687.31;;;6.55;91.45
9423;BME280;65863;49.506;10.400;2023-04-21T00:04:35;97657.56;;;6.45;91.57
9423;BME280;65863;49.506;10.400;2023-04-21T00:07:19;97645.44;;;6.29;91.88
9423;BME280;65863;49.506;10.400;2023-04-21T00:10:06;97678.41;;;6.57;91.96
9423;BME280;65863;49.506;10.400;2023-04-21T00:12:51;97687.63;;;6.52;92.19
9423;BME280;65863;49.506;10.400;2023-04-21T00:15:35;97648.69;;;6.46;92.89
9423;BME280;65863;49.506;10.400;2023-04-21T00:18:19;97624.31;;;6.33;92.84
9423;BME280;65863;49.506;10.400;2023-04-21T00:21:03;97646.66;;;6.60;92.60
9423;BME280;65863;49.506;10.400;2023-04-21T00:23:47;97647.00;;;6.57;92.46
9423;BME280;65863;49.506;10.400;2023-04-21T00:26:32;97606.09;;;6.32;92.36
9423;BME280;65863;49.506;10.400;2023-04-21T00:29:17;97670.91;;;6.65;92.19
9423;BME280;65863;49.506;10.400;2023-04-21T00:32:01;97649.88;;;6.51;92.45
9423;BME280;65863;49.506;10.400;2023-04-21T00:34:48;97652.88;;;6.53;92.36
9423;BME280;65863;49.506;10.400;2023-04-21T00:37:32;97644.59;;;6.47;92.60
9423;BME280;65863;49.506;10.400;2023-04-21T00:40:16;97645.88;;;6.46;92.54
9423;BME280;65863;49.506;10.400;2023-04-21T00:43:00;97662.72;;;6.41;92.58
9423;BME280;65863;49.506;10.400;2023-04-21T00:45:45;97659.72;;;6.38;92.55
9423;BME280;65863;49.506;10.400;2023-04-21T00:48:29;97665.97;;;6.58;92.60
9423;BME280;65863;49.506;10.400;2023-04-21T00:51:14;97661.34;;;6.47;92.33
9423;BME280;65863;49.506;10.400;2023-04-21T00:53:58;97667.16;;;6.49;92.72
9423;BME280;65863;49.506;10.400;2023-04-21T00:56:44;97659.19;;;6.40;92.76
9423;BME280;65863;49.506;10.400;2023-04-21T00:59:29;97645.00;;;6.25;92.88
9423;BME280;65863;49.506;10.400;2023-04-21T01:02:15;97598.16;;;5.91;93.08
9423;BME280;65863;49.506;10.400;2023-04-21T01:05:00;97669.44;;;6.32;93.04
9423;BME280;65863;49.506;10.400;2023-04-21T01:07:44;97636.44;;;6.23;93.19
9423;BME280;65863;49.506;10.400;2023-04-21T01:10:28;97633.44;;;6.34;93.15
9423;BME280;65863;49.506;10.400;2023-04-21T01:13:12;97653.75;;;6.48;93.28
9423;BME280;65863;49.506;10.400;2023-04-21T01:15:57;97670.78;;;6.44;93.04
9423;BME280;65863;49.506;10.400;2023-04-21T01:18:41;97648.47;;;6.31;93.33
9423;BME280;65863;49.506;10.400;2023-04-21T01:21:25;97675.28;;;6.47;93.20
9423;BME280;65863;49.506;10.400;2023-04-21T01:24:11;97681.50;;;6.40;93.04
9423;BME280;65863;49.506;10.400;2023-04-21T01:26:55;97689.00;;;6.45;92.95
9423;BME280;65863;49.506;10.400;2023-04-21T01:29:41;97705.13;;;6.66;93.09
9423;BME280;65863;49.506;10.400;2023-04-21T01:32:27;97689.66;;;6.51;92.94
9423;BME280;65863;49.506;10.400;2023-04-21T01:35:12;97696.75;;;6.52;92.73
9423;BME280;65863;49.506;10.400;2023-04-21T01:37:56;97681.84;;;6.50;92.59
9423;BME280;65863;49.506;10.400;2023-04-21T01:40:40;97695.06;;;6.76;92.73
9423;BME280;65863;49.506;10.400;2023-04-21T01:43:25;97663.41;;;6.60;92.69
9423;BME280;65863;49.506;10.400;2023-04-21T01:46:09;97680.25;;;6.68;92.77
9423;BME280;65863;49.506;10.400;2023-04-21T01:48:54;97679.28;;;6.79;93.09
9423;BME280;65863;49.506;10.400;2023-04-21T01:51:38;97670.38;;;6.80;92.78
9423;BME280;65863;49.506;10.400;2023-04-21T01:54:22;97664.81;;;6.67;92.92
9423;BME280;65863;49.506;10.400;2023-04-21T01:57:06;97655.78;;;6.61;92.87
9423;BME280;65863;49.506;10.400;2023-04-21T01:59:50;97671.13;;;6.67;93.19
9423;BME280;65863;49.506;10.400;2023-04-21T02:02:34;97669.00;;;6.74;93.28
9423;BME280;65863;49.506;10.400;2023-04-21T02:05:18;97668.47;;;6.75;93.28
9423;BME280;65863;49.506;10.400;2023-04-21T02:08:02;97672.72;;;6.76;93.11
9423;BME280;65863;49.506;10.400;2023-04-21T02:10:46;97633.47;;;6.47;93.65
9423;BME280;65863;49.506;10.400;2023-04-21T02:13:30;97657.28;;;6.62;93.27
9423;BME280;65863;49.506;10.400;2023-04-21T02:16:14;97640.88;;;6.58;93.52
9423;BME280;65863;49.506;10.400;2023-04-21T02:19:04;97684.75;;;6.84;93.36
9423;BME280;65863;49.506;10.400;2023-04-21T02:21:50;97666.63;;;6.64;93.68
9423;BME280;65863;49.506;10.400;2023-04-21T02:24:34;97681.22;;;6.70;93.89
9423;BME280;65863;49.506;10.400;2023-04-21T02:27:19;97666.09;;;6.66;94.02
9423;BME280;65863;49.506;10.400;2023-04-21T02:30:03;97689.47;;;6.63;94.15
9423;BME280;65863;49.506;10.400;2023-04-21T02:32:47;97680.91;;;6.61;94.28
9423;BME280;65863;49.506;10.400;2023-04-21T02:35:31;97692.91;;;6.69;94.35
9423;BME280;65863;49.506;10.400;2023-04-21T02:38:16;97681.44;;;6.59;94.44
9423;BME280;65863;49.506;10.400;2023-04-21T02:41:00;97673.38;;;6.55;94.47
9423;BME280;65863;49.506;10.400;2023-04-21T02:43:44;97691.53;;;6.76;94.73
9423;BME280;65863;49.506;10.400;2023-04-21T02:46:28;97675.41;;;6.68;94.88
9423;BME280;65863;49.506;10.400;2023-04-21T02:49:12;97675.53;;;6.76;94.68
9423;BME280;65863;49.506;10.400;2023-04-21T02:51:59;97677.81;;;6.78;94.61
9423;BME280;65863;49.506;10.400;2023-04-21T02:54:43;97656.84;;;6.58;94.48
9423;BME280;65863;49.506;10.400;2023-04-21T02:57:27;97667.50;;;6.59;94.68
9423;BME280;65863;49.506;10.400;2023-04-21T03:00:12;97593.09;;;6.22;94.56
9423;BME280;65863;49.506;10.400;2023-04-21T03:02:57;97691.66;;;6.83;94.65
9423;BME280;65863;49.506;10.400;2023-04-21T03:05:41;97663.72;;;6.57;94.25
9423;BME280;65863;49.506;10.400;2023-04-21T03:08:25;97669.16;;;6.49;94.33
9423;BME280;65863;49.506;10.400;2023-04-21T03:11:09;97691.56;;;6.43;94.16
9423;BME280;65863;49.506;10.400;2023-04-21T03:13:53;97670.53;;;6.29;94.44
9423;BME280;65863;49.506;10.400;2023-04-21T03:16:37;97646.69;;;6.14;94.48
9423;BME280;65863;49.506;10.400;2023-04-21T03:19:22;97657.00;;;6.19;94.56
9423;BME280;65863;49.506;10.400;2023-04-21T03:22:07;97684.59;;;6.36;94.51
9423;BME280;65863;49.506;10.400;2023-04-21T03:24:51;97661.38;;;6.15;94.84
9423;BME280;65863;49.506;10.400;2023-04-21T03:27:35;97679.72;;;6.24;94.88
9423;BME280;65863;49.506;10.400;2023-04-21T03:30:22;97684.72;;;6.12;94.79
9423;BME280;65863;49.506;10.400;2023-04-21T03:33:08;97671.78;;;6.14;95.70
9423;BME280;65863;49.506;10.400;2023-04-21T03:35:52;97642.03;;;6.03;95.23
9423;BME280;65863;49.506;10.400;2023-04-21T03:38:36;97654.56;;;5.97;95.33
9423;BME280;65863;49.506;10.400;2023-04-21T03:41:20;97658.59;;;5.96;95.52
9423;BME280;65863;49.506;10.400;2023-04-21T03:44:05;97653.28;;;5.79;95.28
9423;BME280;65863;49.506;10.400;2023-04-21T03:46:51;97648.09;;;5.69;95.62
9423;BME280;65863;49.506;10.400;2023-04-21T03:49:37;97642.41;;;5.62;95.46
9423;BME280;65863;49.506;10.400;2023-04-21T03:52:21;97604.34;;;5.32;96.00
9423;BME280;65863;49.506;10.400;2023-04-21T03:55:05;97625.31;;;5.52;95.83
9423;BME280;65863;49.506;10.400;2023-04-21T03:57:54;97639.22;;;5.71;96.11
9423;BME280;65863;49.506;10.400;2023-04-21T04:00:38;97654.72;;;5.85;95.99
9423;BME280;65863;49.506;10.400;2023-04-21T04:03:22;97652.31;;;5.76;96.04
9423;BME280;65863;49.506;10.400;2023-04-21T04:06:06;97681.50;;;5.89;96.22
9423;BME280;65863;49.506;10.400;2023-04-21T04:08:50;97665.72;;;5.78;95.76
9423;BME280;65863;49.506;10.400;2023-04-21T04:11:34;97642.69;;;5.77;95.96
9423;BME280;65863;49.506;10.400;2023-04-21T04:14:18;97618.09;;;5.43;95.99
9423;BME280;65863;49.506;10.400;2023-04-21T04:17:02;97644.13;;;5.65;96.32
9423;BME280;65863;49.506;10.400;2023-04-21T04:19:46;97623.97;;;5.59;96.15
9423;BME280;65863;49.506;10.400;2023-04-21T04:22:30;97683.25;;;5.92;96.90
9423;BME280;65863;49.506;10.400;2023-04-21T04:25:14;97652.22;;;6.01;96.71
9423;BME280;65863;49.506;10.400;2023-04-21T04:27:59;97642.91;;;5.98;96.28
9423;BME280;65863;49.506;10.400;2023-04-21T04:30:43;97646.97;;;5.97;96.75
9423;BME280;65863;49.506;10.400;2023-04-21T04:33:28;97645.22;;;5.94;96.44
9423;BME280;65863;49.506;10.400;2023-04-21T04:36:11;97655.69;;;6.07;96.22
9423;BME280;65863;49.506;10.400;2023-04-21T04:38:56;97679.53;;;6.35;96.48
9423;BME280;65863;49.506;10.400;2023-04-21T04:41:41;97636.72;;;6.19;96.27
9423;BME280;65863;49.506;10.400;2023-04-21T04:44:25;97644.25;;;6.24;96.44
9423;BME280;65863;49.506;10.400;2023-04-21T04:47:12;97614.03;;;5.96;96.39
9423;BME280;65863;49.506;10.400;2023-04-21T04:49:56;97648.88;;;6.35;96.85
9423;BME280;65863;49.506;10.400;2023-04-21T04:52:40;97636.97;;;6.34;96.81
9423;BME280;65863;49.506;10.400;2023-04-21T04:55:24;97602.09;;;6.14;96.82
9423;BME280;65863;49.506;10.400;2023-04-21T04:58:08;97616.81;;;6.28;97.11
9423;BME280;65863;49.506;10.400;2023-04-21T05:00:52;97612.44;;;6.33;97.07
9423;BME280;65863;49.506;10.400;2023-04-21T05:03:36;97600.84;;;6.29;97.14
9423;BME280;65863;49.506;10.400;2023-04-21T05:06:20;97589.16;;;6.30;97.07
9423;BME280;65863;49.506;10.400;2023-04-21T05:09:04;97604.25;;;6.35;97.02
9423;BME280;65863;49.506;10.400;2023-04-21T05:11:48;97625.53;;;6.65;97.16
9423;BME280;65863;49.506;10.400;2023-04-21T05:14:32;97625.75;;;6.80;96.78
9423;BME280;65863;49.506;10.400;2023-04-21T05:17:16;97626.84;;;6.91;96.38
9423;BME280;65863;49.506;10.400;2023-04-21T05:20:00;97663.50;;;7.21;96.32
9423;BME280;65863;49.506;10.400;2023-04-21T05:22:44;97677.41;;;7.48;96.37
9423;BME280;65863;49.506;10.400;2023-04-21T05:25:28;97664.41;;;7.64;95.48
9423;BME280;65863;49.506;10.400;2023-04-21T05:28:12;97670.22;;;7.87;95.10
9423;BME280;65863;49.506;10.400;2023-04-21T05:30:57;97710.81;;;8.02;94.14
9423;BME280;65863;49.506;10.400;2023-04-21T05:33:41;97694.50;;;7.92;92.87
9423;BME280;65863;49.506;10.400;2023-04-21T05:36:25;97686.75;;;7.99;92.56
9423;BME280;65863;49.506;10.400;2023-04-21T05:39:10;97685.22;;;7.98;91.89
9423;BME280;65863;49.506;10.400;2023-04-21T05:41:54;97692.47;;;8.14;91.44
9423;BME280;65863;49.506;10.400;2023-04-21T05:44:38;97683.41;;;8.42;91.18
9423;BME280;65863;49.506;10.400;2023-04-21T05:47:24;97677.84;;;8.92;90.55
9423;BME280;65863;49.506;10.400;2023-04-21T05:50:08;97689.53;;;9.56;89.65
9423;BME280;65863;49.506;10.400;2023-04-21T05:52:52;97677.22;;;9.52;87.77
9423;BME280;65863;49.506;10.400;2023-04-21T05:55:37;97703.94;;;9.53;86.30
9423;BME280;65863;49.506;10.400;2023-04-21T05:58:20;97685.63;;;9.52;85.33
9423;BME280;65863;49.506;10.400;2023-04-21T06:01:07;97678.63;;;9.89;84.39
9423;BME280;65863;49.506;10.400;2023-04-21T06:03:51;97667.47;;;10.20;83.28
9423;BME280;65863;49.506;10.400;2023-04-21T06:06:35;97668.22;;;10.28;81.72
9423;BME280;65863;49.506;10.400;2023-04-21T06:09:19;97706.72;;;10.20;80.01
9423;BME280;65863;49.506;10.400;2023-04-21T06:12:04;97695.59;;;9.76;79.80
9423;BME280;65863;49.506;10.400;2023-04-21T06:14:48;97696.81;;;9.52;80.13
9423;BME280;65863;49.506;10.400;2023-04-21T06:17:32;97674.50;;;9.30;80.41
9423;BME280;65863;49.506;10.400;2023-04-21T06:20:16;97679.00;;;9.86;81.38
9423;BME280;65863;49.506;10.400;2023-04-21T06:23:00;97678.75;;;10.66;80.93
9423;BME280;65863;49.506;10.400;2023-04-21T06:25:44;97685.22;;;11.71;79.54
9423;BME280;65863;49.506;10.400;2023-04-21T06:28:29;97706.97;;;12.45;77.15
9423;BME280;65863;49.506;10.400;2023-04-21T06:31:14;97692.13;;;12.87;73.96
9423;BME280;65863;49.506;10.400;2023-04-21T06:33:58;97685.41;;;12.39;71.15
9423;BME280;65863;49.506;10.400;2023-04-21T06:36:42;97707.22;;;11.98;70.70
9423;BME280;65863;49.506;10.400;2023-04-21T06:39:26;97694.78;;;10.97;70.65
9423;BME280;65863;49.506;10.400;2023-04-21T06:42:10;97660.00;;;10.92;72.46
9423;BME280;65863;49.506;10.400;2023-04-21T06:44:59;97688.47;;;12.77;73.03
9423;BME280;65863;49.506;10.400;2023-04-21T06:47:43;97653.06;;;13.26;69.95
9423;BME280;65863;49.506;10.400;2023-04-21T06:50:27;97688.03;;;13.05;68.05
9423;BME280;65863;49.506;10.400;2023-04-21T06:53:11;97676.97;;;13.42;67.31
9423;BME280;65863;49.506;10.400;2023-04-21T06:55:55;97659.41;;;14.06;66.32
9423;BME280;65863;49.506;10.400;2023-04-21T06:58:39;97677.53;;;14.40;63.86
9423;BME280;65863;49.506;10.400;2023-04-21T07:01:23;97677.94;;;14.00;62.72
9423;BME280;65863;49.506;10.400;2023-04-21T07:04:07;97658.97;;;13.38;63.27
9423;BME280;65863;49.506;10.400;2023-04-21T07:06:51;97612.44;;;13.47;63.99
9423;BME280;65863;49.506;10.400;2023-04-21T07:09:35;97662.41;;;14.18;64.44
9423;BME280;65863;49.506;10.400;2023-04-21T07:12:19;97660.88;;;14.07;63.80
9423;BME280;65863;49.506;10.400;2023-04-21T07:15:04;97607.31;;;13.18;64.47
9423;BME280;65863;49.506;10.400;2023-04-21T07:17:48;97638.97;;;12.91;65.41
9423;BME280;65863;49.506;10.400;2023-04-21T07:20:32;97644.84;;;12.43;66.33
9423;BME280;65863;49.506;10.400;2023-04-21T07:23:16;97645.41;;;12.66;67.95
9423;BME280;65863;49.506;10.400;2023-04-21T07:26:00;97654.78;;;12.44;68.09
9423;BME280;65863;49.506;10.400;2023-04-21T07:28:44;97661.25;;;12.79;68.55
9423;BME280;65863;49.506;10.400;2023-04-21T07:31:28;97661.34;;;13.06;68.34
9423;BME280;65863;49.506;10.400;2023-04-21T07:34:13;97647.00;;;13.12;68.13
9423;BME280;65863;49.506;10.400;2023-04-21T07:36:57;97667.44;;;12.78;67.91
9423;BME280;65863;49.506;10.400;2023-04-21T07:39:41;97660.97;;;12.17;67.37
9423;BME280;65863;49.506;10.400;2023-04-21T07:42:25;97680.59;;;11.99;69.54
9423;BME280;65863;49.506;10.400;2023-04-21T07:45:10;97633.53;;;11.59;70.17
9423;BME280;65863;49.506;10.400;2023-04-21T07:47:54;97642.75;;;11.85;70.72
9423;BME280;65863;49.506;10.400;2023-04-21T07:50:38;97554.06;;;10.85;71.65
9423;BME280;65863;49.506;10.400;2023-04-21T07:53:22;97599.94;;;11.28;72.39
9423;BME280;65863;49.506;10.400;2023-04-21T07:56:07;97651.75;;;11.91;72.86
9423;BME280;65863;49.506;10.400;2023-04-21T07:58:54;97665.59;;;12.55;72.70
9423;BME280;65863;49.506;10.400;2023-04-21T08:01:38;97629.91;;;12.57;71.69
9423;BME280;65863;49.506;10.400;2023-04-21T08:04:22;97629.69;;;12.81;70.63
9423;BME280;65863;49.506;10.400;2023-04-21T08:07:06;97647.25;;;12.89;69.28
9423;BME280;65863;49.506;10.400;2023-04-21T08:09:52;97656.44;;;12.72;68.59
9423;BME280;65863;49.506;10.400;2023-04-21T08:12:36;97652.66;;;13.12;68.92
9423;BME280;65863;49.506;10.400;2023-04-21T08:15:21;97665.66;;;13.60;68.91
9423;BME280;65863;49.506;10.400;2023-04-21T08:18:05;97671.63;;;13.64;68.01
9423;BME280;65863;49.506;10.400;2023-04-21T08:20:49;97654.16;;;13.13;66.80
9423;BME280;65863;49.506;10.400;2023-04-21T08:23:34;97620.41;;;13.23;67.52
9423;BME280;65863;49.506;10.400;2023-04-21T08:26:18;97655.88;;;13.08;66.45
9423;BME280;65863;49.506;10.400;2023-04-21T08:29:04;97639.88;;;12.76;66.47
9423;BME280;65863;49.506;10.400;2023-04-21T08:31:49;97640.34;;;12.65;67.21
9423;BME280;65863;49.506;10.400;2023-04-21T08:34:33;97637.69;;;12.67;67.88
9423;BME280;65863;49.506;10.400;2023-04-21T08:37:18;97664.84;;;12.29;67.01
9423;BME280;65863;49.506;10.400;2023-04-21T08:40:03;97670.81;;;12.33;69.42
9423;BME280;65863;49.506;10.400;2023-04-21T08:42:47;97669.59;;;12.44;69.71
9423;BME280;65863;49.506;10.400;2023-04-21T08:45:32;97649.16;;;11.85;69.29
9423;BME280;65863;49.506;10.400;2023-04-21T08:48:16;97659.41;;;11.98;70.23
9423;BME280;65863;49.506;10.400;2023-04-21T08:51:05;97666.13;;;11.62;70.68
9423;BME280;65863;49.506;10.400;2023-04-21T08:53:49;97640.88;;;11.95;71.39
9423;BME280;65863;49.506;10.400;2023-04-21T08:56:33;97670.09;;;12.75;70.91
9423;BME280;65863;49.506;10.400;2023-04-21T08:59:17;97634.81;;;13.45;70.23
9423;BME280;65863;49.506;10.400;2023-04-21T09:02:15;97643.13;;;14.24;66.77
9423;BME280;65863;49.506;10.400;2023-04-21T09:05:00;97671.41;;;14.34;65.04
9423;BME280;65863;49.506;10.400;2023-04-21T09:07:44;97643.41;;;14.19;64.10
9423;BME280;65863;49.506;10.400;2023-04-21T09:10:27;97636.88;;;13.62;62.55
9423;BME280;65863;49.506;10.400;2023-04-21T09:13:12;97656.00;;;14.08;62.94
9423;BME280;65863;49.506;10.400;2023-04-21T09:15:57;97655.25;;;14.44;64.38
9423;BME280;65863;49.506;10.400;2023-04-21T09:18:43;97640.13;;;14.59;64.15
9423;BME280;65863;49.506;10.400;2023-04-21T09:21:27;97641.41;;;14.76;63.84
9423;BME280;65863;49.506;10.400;2023-04-21T09:24:12;97647.78;;;14.76;62.64
9423;BME280;65863;49.506;10.400;2023-04-21T09:26:55;97658.09;;;14.44;62.85
9423;BME280;65863;49.506;10.400;2023-04-21T09:29:44;97636.13;;;13.88;62.31
9423;BME280;65863;49.506;10.400;2023-04-21T09:32:35;97639.69;;;13.89;63.01
9423;BME280;65863;49.506;10.400;2023-04-21T09:35:19;97626.81;;;13.95;63.52
9423;BME280;65863;49.506;10.400;2023-04-21T09:38:09;97636.63;;;14.32;63.19
9423;BME280;65863;49.506;10.400;2023-04-21T09:40:57;97668.31;;;14.87;62.00
9423;BME280;65863;49.506;10.400;2023-04-21T09:43:41;97651.69;;;15.49;61.29
9423;BME280;65863;49.506;10.400;2023-04-21T09:46:28;97653.75;;;15.59;59.17
9423;BME280;65863;49.506;10.400;2023-04-21T09:49:12;97594.41;;;15.29;57.48
9423;BME280;65863;49.506;10.400;2023-04-21T09:51:59;97656.75;;;15.71;57.33
9423;BME280;65863;49.506;10.400;2023-04-21T09:54:49;97621.44;;;15.72;57.29
9423;BME280;65863;49.506;10.400;2023-04-21T09:57:37;97628.75;;;15.65;56.58
9423;BME280;65863;49.506;10.400;2023-04-21T10:00:27;97630.41;;;14.90;57.41
9423;BME280;65863;49.506;10.400;2023-04-21T10:03:15;97633.06;;;15.66;57.37
9423;BME280;65863;49.506;10.400;2023-04-21T10:06:00;97627.31;;;16.15;56.27
9423;BME280;65863;49.506;10.400;2023-04-21T10:08:44;97585.59;;;15.55;54.46
9423;BME280;65863;49.506;10.400;2023-04-21T10:11:29;97620.34;;;16.38;55.33
9423;BME280;65863;49.506;10.400;2023-04-21T10:14:15;97614.31;;;16.53;53.64
9423;BME280;65863;49.506;10.400;2023-04-21T10:17:07;97634.88;;;16.22;53.75
9423;BME280;65863;49.506;10.400;2023-04-21T10:19:54;97602.13;;;16.09;54.31
9423;BME280;65863;49.506;10.400;2023-04-21T10:22:41;97622.78;;;15.80;54.06
9423;BME280;65863;49.506;10.400;2023-04-21T10:25:28;97590.72;;;16.29;55.24
9423;BME280;65863;49.506;10.400;2023-04-21T10:28:17;97597.59;;;16.79;53.33
9423;BME280;65863;49.506;10.400;2023-04-21T10:31:22;97609.44;;;17.64;53.23
9423;BME280;65863;49.506;10.400;2023-04-21T10:39:44;97607.09;;;17.27;53.13
9423;BME280;65863;49.506;10.400;2023-04-21T10:42:33;97581.97;;;17.33;51.96
9423;BME280;65863;49.506;10.400;2023-04-21T10:45:17;97532.28;;;16.33;52.60
9423;BME280;65863;49.506;10.400;2023-04-21T10:48:01;97574.41;;;17.71;53.38
9423;BME280;65863;49.506;10.400;2023-04-21T10:50:47;97572.81;;;17.68;51.58
9423;BME280;65863;49.506;10.400;2023-04-21T10:53:42;97550.41;;;17.96;52.01
9423;BME280;65863;49.506;10.400;2023-04-21T10:56:27;97556.63;;;17.70;50.55
9423;BME280;65863;49.506;10.400;2023-04-21T10:59:11;97563.88;;;17.50;49.48
9423;BME280;65863;49.506;10.400;2023-04-21T11:01:56;97582.50;;;18.34;49.18
9423;BME280;65863;49.506;10.400;2023-04-21T11:04:40;97583.03;;;17.73;46.92
9423;BME280;65863;49.506;10.400;2023-04-21T11:07:30;97560.84;;;17.81;47.58
9423;BME280;65863;49.506;10.400;2023-04-21T11:10:14;97539.84;;;17.63;47.31
9423;BME280;65863;49.506;10.400;2023-04-21T11:13:00;97563.31;;;17.87;47.36
9423;BME280;65863;49.506;10.400;2023-04-21T11:16:02;97548.63;;;17.21;47.86
9423;BME280;65863;49.506;10.400;2023-04-21T11:18:46;97528.81;;;17.91;46.84
9423;BME280;65863;49.506;10.400;2023-04-21T11:21:30;97550.72;;;18.61;47.05
9423;BME280;65863;49.506;10.400;2023-04-21T11:24:16;97529.50;;;19.00;47.16
9423;BME280;65863;49.506;10.400;2023-04-21T11:27:00;97522.72;;;18.20;46.32
9423;BME280;65863;49.506;10.400;2023-04-21T11:29:45;97527.09;;;16.95;47.78
9423;BME280;65863;49.506;10.400;2023-04-21T11:32:29;97544.91;;;17.64;48.05
9423;BME280;65863;49.506;10.400;2023-04-21T11:35:13;97561.88;;;18.10;48.33
9423;BME280;65863;49.506;10.400;2023-04-21T11:37:57;97534.19;;;18.34;47.01
9423;BME280;65863;49.506;10.400;2023-04-21T11:40:45;97539.47;;;18.63;47.47
9423;BME280;65863;49.506;10.400;2023-04-21T11:43:30;97524.19;;;18.82;45.85
9423;BME280;65863;49.506;10.400;2023-04-21T11:49:09;97525.91;;;18.99;44.04
9423;BME280;65863;49.506;10.400;2023-04-21T11:51:54;97469.34;;;18.42;44.97
9423;BME280;65863;49.506;10.400;2023-04-21T11:54:39;97507.78;;;18.19;45.53
9423;BME280;65863;49.506;10.400;2023-04-21T11:57:24;97538.88;;;18.53;46.95
9423;BME280;65863;49.506;10.400;2023-04-21T12:00:10;97513.41;;;19.04;47.70
9423;BME280;65863;49.506;10.400;2023-04-21T12:02:55;97518.41;;;19.43;47.38
9423;BME280;65863;49.506;10.400;2023-04-21T12:05:39;97517.81;;;19.73;46.17
9423;BME280;65863;49.506;10.400;2023-04-21T12:08:23;97503.38;;;19.29;44.86
9423;BME280;65863;49.506;10.400;2023-04-21T12:11:08;97505.97;;;19.25;45.21
9423;BME280;65863;49.506;10.400;2023-04-21T12:13:52;97492.34;;;19.35;45.78
9423;BME280;65863;49.506;10.400;2023-04-21T12:16:36;97507.66;;;19.16;45.21
9423;BME280;65863;49.506;10.400;2023-04-21T12:19:22;97520.22;;;19.25;45.10
9423;BME280;65863;49.506;10.400;2023-04-21T12:22:12;97460.88;;;19.19;45.15
9423;BME280;65863;49.506;10.400;2023-04-21T12:24:56;97507.97;;;18.97;44.05
9423;BME280;65863;49.506;10.400;2023-04-21T12:27:51;97467.41;;;18.21;46.10
9423;BME280;65863;49.506;10.400;2023-04-21T12:30:35;97525.41;;;18.53;46.16
9423;BME280;65863;49.506;10.400;2023-04-21T12:33:19;97505.94;;;19.37;45.97
9423;BME280;65863;49.506;10.400;2023-04-21T12:36:04;97445.66;;;19.40;44.29
9423;BME280;65863;49.506;10.400;2023-04-21T12:38:48;97504.03;;;19.81;43.13
9423;BME280;65863;49.506;10.400;2023-04-21T12:41:32;97469.19;;;19.55;42.47
9423;BME280;65863;49.506;10.400;2023-04-21T12:44:17;97502.19;;;19.20;42.10
9423;BME280;65863;49.506;10.400;2023-04-21T12:47:01;97495.78;;;19.59;42.55
9423;BME280;65863;49.506;10.400;2023-04-21T12:49:45;97473.03;;;19.73;42.04
9423;BME280;65863;49.506;10.400;2023-04-21T12:52:29;97496.25;;;20.09;41.23
9423;BME280;65863;49.506;10.400;2023-04-21T12:55:13;97472.81;;;20.53;41.37
9423;BME280;65863;49.506;10.400;2023-04-21T12:57:57;97477.84;;;20.54;41.80
9423;BME280;65863;49.506;10.400;2023-04-21T13:00:41;97461.88;;;20.63;41.06
9423;BME280;65863;49.506;10.400;2023-04-21T13:03:26;97465.94;;;20.44;40.00
9423;BME280;65863;49.506;10.400;2023-04-21T13:06:10;97484.00;;;20.07;40.76
9423;BME280;65863;49.506;10.400;2023-04-21T13:08:54;97433.78;;;19.72;42.11
9423;BME280;65863;49.506;10.400;2023-04-21T13:11:38;97453.09;;;20.29;40.88
9423;BME280;65863;49.506;10.400;2023-04-21T13:14:22;97480.09;;;20.42;40.23
9423;BME280;65863;49.506;10.400;2023-04-21T13:17:06;97481.06;;;20.05;40.21
9423;BME280;65863;49.506;10.400;2023-04-21T13:19:50;97479.25;;;20.25;39.65
9423;BME280;65863;49.506;10.400;2023-04-21T13:22:34;97445.53;;;20.50;40.22
9423;BME280;65863;49.506;10.400;2023-04-21T13:25:18;97466.25;;;20.94;39.55
9423;BME280;65863;49.506;10.400;2023-04-21T13:28:02;97451.88;;;20.48;39.96
9423;BME280;65863;49.506;10.400;2023-04-21T13:30:47;97448.06;;;20.71;40.60
9423;BME280;65863;49.506;10.400;2023-04-21T13:33:31;97445.44;;;20.61;39.74
9423;BME280;65863;49.506;10.400;2023-04-21T13:36:18;97444.22;;;20.67;39.56
9423;BME280;65863;49.506;10.400;2023-04-21T13:39:03;97476.44;;;20.83;39.67
9423;BME280;65863;49.506;10.400;2023-04-21T13:41:48;97453.31;;;20.77;39.50
9423;BME280;65863;49.506;10.400;2023-04-21T13:44:32;97454.94;;;20.52;39.77
9423;BME280;65863;49.506;10.400;2023-04-21T13:47:16;97431.94;;;20.48;39.47
9423;BME280;65863;49.506;10.400;2023-04-21T13:50:00;97424.31;;;19.95;39.29
9423;BME280;65863;49.506;10.400;2023-04-21T13:52:44;97429.94;;;20.37;40.63
9423;BME280;65863;49.506;10.400;2023-04-21T13:55:28;97424.50;;;20.57;38.38
9423;BME280;65863;49.506;10.400;2023-04-21T13:58:14;97408.59;;;20.08;38.18
9423;BME280;65863;49.506;10.400;2023-04-21T14:00:58;97423.50;;;20.50;38.97
9423;BME280;65863;49.506;10.400;2023-04-21T14:03:42;97411.69;;;21.02;38.35
9423;BME280;65863;49.506;10.400;2023-04-21T14:06:26;97435.50;;;21.38;37.34
9423;BME280;65863;49.506;10.400;2023-04-21T14:09:10;97419.38;;;21.29;37.07
9423;BME280;65863;49.506;10.400;2023-04-21T14:11:54;97410.78;;;21.13;37.24
9423;BME280;65863;49.506;10.400;2023-04-21T14:14:38;97397.34;;;21.00;37.18
9423;BME280;65863;49.506;10.400;2023-04-21T14:17:22;97422.78;;;21.41;36.61
9423;BME280;65863;49.506;10.400;2023-04-21T14:20:06;97406.69;;;20.86;36.23
9423;BME280;65863;49.506;10.400;2023-04-21T14:22:52;97392.91;;;20.37;37.96
9423;BME280;65863;49.506;10.400;2023-04-21T14:25:36;97413.13;;;20.57;37.39
9423;BME280;65863;49.506;10.400;2023-04-21T14:28:20;97414.56;;;20.28;37.15
9423;BME280;65863;49.506;10.400;2023-04-21T14:31:04;97399.72;;;19.74;38.46
9423;BME280;65863;49.506;10.400;2023-04-21T14:33:48;97397.81;;;20.20;37.92
9423;BME280;65863;49.506;10.400;2023-04-21T14:36:32;97361.75;;;20.11;37.95
9423;BME280;65863;49.506;10.400;2023-04-21T14:39:16;97372.84;;;20.49;38.07
9423;BME280;65863;49.506;10.400;2023-04-21T14:42:00;97374.88;;;20.32;37.66
9423;BME280;65863;49.506;10.400;2023-04-21T14:44:44;97374.84;;;20.76;37.86
9423;BME280;65863;49.506;10.400;2023-04-21T14:47:28;97360.50;;;20.74;37.83